Wayana — PE5639 — position and weather

sailwx.info

Track history (hours):
 
Tides and Currents Weather Stations Pressure Air Temp Water Temp Dewpoint Dewpoint Depression Visibility Wind Speed Wind Dir Waves Ship Positions

Wayana

Last reported at 2015-Jul-09 20:33 UTC. Time now 2015-Jul-30 10:08 UTC.
Position N 63°41' E 009°40'.
Warning: this ship's position is 20 days out of date.

Length 14 m.

Type: Sailing vessel. MMSI: 244020670.

Date/timePositionNaut miles runAvg speedWind from/ knotsBaromVisibWave heightAir tempDewpointWater temp
2015-Jul-09 20:33N 63°41' E 009°40'0 0.0
2015-Jul-09 19:33N 63°41' E 009°40'0 0.0
2015-Jul-09 18:33N 63°41' E 009°40'0 0.0
2015-Jul-09 17:33N 63°41' E 009°40'0 0.0
2015-Jul-09 16:33N 63°41' E 009°40'4 4.1
2015-Jul-09 15:33N 63°38' E 009°34'  
2015-Jul-02 09:06N 63°41' E 009°06'4 5.4
2015-Jul-02 08:25N 63°39' E 009°11'7 0.2
2015-Jun-30 14:26N 63°38' E 009°28'5 6.1
2015-Jun-30 13:33N 63°39' E 009°40'5 5.0
2015-Jun-30 12:27N 63°36' E 009°50'5 6.0
2015-Jun-30 11:33N 63°31' E 009°55'6 5.7
2015-Jun-30 10:33N 63°28' E 010°06'5 5.4
2015-Jun-30 09:33N 63°27' E 010°18'2 2.3
2015-Jun-30 08:32N 63°26' E 010°22'0 0.0
2015-Jun-30 07:32N 63°26' E 010°22'0 0.0
2015-Jun-30 06:32N 63°26' E 010°22'0 0.0
2015-Jun-30 05:32N 63°26' E 010°22'0 0.0
2015-Jun-30 04:31N 63°26' E 010°22'0 0.0
2015-Jun-30 03:31N 63°26' E 010°22'0 0.0
2015-Jun-30 02:31N 63°26' E 010°22'0 0.0
2015-Jun-30 01:31N 63°26' E 010°22'0 0.0
2015-Jun-30 00:31N 63°26' E 010°22'0 0.0
2015-Jun-29 23:31N 63°26' E 010°22'0 0.0
2015-Jun-29 22:31N 63°26' E 010°22'0 0.0
2015-Jun-29 21:31N 63°26' E 010°22'  
Track history (hours):
 
Tides and Currents Weather Stations Pressure Air Temp Water Temp Dewpoint Dewpoint Depression Visibility Wind Speed Wind Dir Waves Ship Positions

Wayana

Last reported at 2015-Jul-09 20:33 UTC. Time now 2015-Jul-30 10:08 UTC.
Position N 63°41' E 009°40'.
Warning: this ship's position is 20 days out of date.

Length 14 m.

Type: Sailing vessel. MMSI: 244020670.

Date/timePositionNaut miles runAvg speedWind from/ knotsBaromVisibWave heightAir tempDewpointWater temp
2015-Jul-09 20:33N 63°41' E 009°40'0 0.0
2015-Jul-09 19:33N 63°41' E 009°40'0 0.0
2015-Jul-09 18:33N 63°41' E 009°40'0 0.0
2015-Jul-09 17:33N 63°41' E 009°40'0 0.0
2015-Jul-09 16:33N 63°41' E 009°40'4 4.1
2015-Jul-09 15:33N 63°38' E 009°34'  
2015-Jul-02 09:06N 63°41' E 009°06'4 5.4
2015-Jul-02 08:25N 63°39' E 009°11'7 0.2
2015-Jun-30 14:26N 63°38' E 009°28'5 6.1
2015-Jun-30 13:33N 63°39' E 009°40'5 5.0
2015-Jun-30 12:27N 63°36' E 009°50'5 6.0
2015-Jun-30 11:33N 63°31' E 009°55'6 5.7
2015-Jun-30 10:33N 63°28' E 010°06'5 5.4
2015-Jun-30 09:33N 63°27' E 010°18'2 2.3
2015-Jun-30 08:32N 63°26' E 010°22'0 0.0
2015-Jun-30 07:32N 63°26' E 010°22'0 0.0
2015-Jun-30 06:32N 63°26' E 010°22'0 0.0
2015-Jun-30 05:32N 63°26' E 010°22'0 0.0
2015-Jun-30 04:31N 63°26' E 010°22'0 0.0
2015-Jun-30 03:31N 63°26' E 010°22'0 0.0
2015-Jun-30 02:31N 63°26' E 010°22'0 0.0
2015-Jun-30 01:31N 63°26' E 010°22'0 0.0
2015-Jun-30 00:31N 63°26' E 010°22'0 0.0
2015-Jun-29 23:31N 63°26' E 010°22'0 0.0
2015-Jun-29 22:31N 63°26' E 010°22'0 0.0
2015-Jun-29 21:31N 63°26' E 010°22'  

Dump ship's entire track history